sensor_id;sensor_type;location;lat;lon;timestamp;pressure;altitude;pressure_sealevel;temperature;humidity
51261;BME280;61705;46.228;24.812;2023-05-03T00:00:06;97982.03;;;8.59;68.37
51261;BME280;61705;46.228;24.812;2023-05-03T00:02:34;97981.56;;;8.46;68.26
51261;BME280;61705;46.228;24.812;2023-05-03T00:05:09;97981.56;;;8.17;69.33
51261;BME280;61705;46.228;24.812;2023-05-03T00:07:41;97983.31;;;8.18;69.31
51261;BME280;61705;46.228;24.812;2023-05-03T00:10:07;97985.09;;;8.17;69.40
51261;BME280;61705;46.228;24.812;2023-05-03T00:12:38;97975.94;;;8.01;69.67
51261;BME280;61705;46.228;24.812;2023-05-03T00:15:05;97983.16;;;7.94;70.31
51261;BME280;61705;46.228;24.812;2023-05-03T00:17:32;97973.56;;;7.92;70.62
51261;BME280;61705;46.228;24.812;2023-05-03T00:19:59;97962.09;;;7.94;70.72
51261;BME280;61705;46.228;24.812;2023-05-03T00:22:27;97961.75;;;7.77;71.08
51261;BME280;61705;46.228;24.812;2023-05-03T00:24:53;97964.97;;;7.55;72.31
51261;BME280;61705;46.228;24.812;2023-05-03T00:27:21;97961.84;;;7.74;71.23
51261;BME280;61705;46.228;24.812;2023-05-03T00:29:50;97959.16;;;7.75;70.34
51261;BME280;61705;46.228;24.812;2023-05-03T00:32:18;97959.84;;;7.52;71.30
51261;BME280;61705;46.228;24.812;2023-05-03T00:34:44;97956.44;;;7.49;71.17
51261;BME280;61705;46.228;24.812;2023-05-03T00:37:11;97961.56;;;7.53;71.03
51261;BME280;61705;46.228;24.812;2023-05-03T00:39:37;97953.31;;;7.34;71.76
51261;BME280;61705;46.228;24.812;2023-05-03T00:42:04;97951.38;;;7.41;70.97
51261;BME280;61705;46.228;24.812;2023-05-03T00:44:31;97965.91;;;7.23;71.68
51261;BME280;61705;46.228;24.812;2023-05-03T00:46:57;97951.84;;;7.24;71.37
51261;BME280;61705;46.228;24.812;2023-05-03T00:49:24;97962.44;;;7.21;71.30
51261;BME280;61705;46.228;24.812;2023-05-03T00:51:53;97956.88;;;7.01;72.42
51261;BME280;61705;46.228;24.812;2023-05-03T00:54:21;97964.03;;;6.96;72.85
51261;BME280;61705;46.228;24.812;2023-05-03T00:56:48;97959.25;;;7.10;72.11
51261;BME280;61705;46.228;24.812;2023-05-03T00:59:18;97957.56;;;7.07;71.35
51261;BME280;61705;46.228;24.812;2023-05-03T01:01:46;97952.66;;;6.95;71.52
51261;BME280;61705;46.228;24.812;2023-05-03T01:04:13;97956.81;;;6.70;73.10
51261;BME280;61705;46.228;24.812;2023-05-03T01:06:43;97953.44;;;6.64;73.63
51261;BME280;61705;46.228;24.812;2023-05-03T01:09:11;97954.09;;;6.74;73.77
51261;BME280;61705;46.228;24.812;2023-05-03T01:11:46;97954.72;;;6.82;72.92
51261;BME280;61705;46.228;24.812;2023-05-03T01:17:08;97952.88;;;6.86;72.07
51261;BME280;61705;46.228;24.812;2023-05-03T01:19:43;97955.16;;;6.65;73.25
51261;BME280;61705;46.228;24.812;2023-05-03T01:22:16;97956.03;;;6.66;73.99
51261;BME280;61705;46.228;24.812;2023-05-03T01:24:50;97950.31;;;6.84;
51261;BME280;61705;46.228;24.812;2023-05-03T01:27:20;97956.09;;;6.97;72.26
51261;BME280;61705;46.228;24.812;2023-05-03T01:29:47;97957.78;;;7.00;73.25
51261;BME280;61705;46.228;24.812;2023-05-03T01:32:21;97958.22;;;6.83;73.15
51261;BME280;61705;46.228;24.812;2023-05-03T01:35:18;97961.34;;;6.97;72.79
51261;BME280;61705;46.228;24.812;2023-05-03T01:37:46;97965.63;;;7.01;72.75
51261;BME280;61705;46.228;24.812;2023-05-03T01:40:14;97964.16;;;6.91;73.93
51261;BME280;61705;46.228;24.812;2023-05-03T01:42:42;97966.16;;;7.14;72.23
51261;BME280;61705;46.228;24.812;2023-05-03T01:45:09;97963.78;;;7.05;71.98
51261;BME280;61705;46.228;24.812;2023-05-03T01:47:36;97959.97;;;6.82;73.10
51261;BME280;61705;46.228;24.812;2023-05-03T01:50:03;97962.09;;;6.68;73.51
51261;BME280;61705;46.228;24.812;2023-05-03T01:52:31;97968.38;;;6.62;74.05
51261;BME280;61705;46.228;24.812;2023-05-03T01:54:57;97965.88;;;6.56;74.05
51261;BME280;61705;46.228;24.812;2023-05-03T01:57:25;97970.53;;;6.47;74.84
51261;BME280;61705;46.228;24.812;2023-05-03T01:59:52;97971.13;;;6.58;74.18
51261;BME280;61705;46.228;24.812;2023-05-03T02:02:18;97960.56;;;6.59;73.83
51261;BME280;61705;46.228;24.812;2023-05-03T02:04:45;97961.25;;;6.68;74.34
51261;BME280;61705;46.228;24.812;2023-05-03T02:07:13;97958.63;;;6.68;74.55
51261;BME280;61705;46.228;24.812;2023-05-03T02:09:39;97962.84;;;6.73;74.42
51261;BME280;61705;46.228;24.812;2023-05-03T02:12:06;97962.69;;;6.45;74.63
51261;BME280;61705;46.228;24.812;2023-05-03T02:14:33;97954.78;;;6.09;76.14
51261;BME280;61705;46.228;24.812;2023-05-03T02:17:00;97962.53;;;6.14;76.46
51261;BME280;61705;46.228;24.812;2023-05-03T02:19:28;97958.63;;;6.32;74.93
51261;BME280;61705;46.228;24.812;2023-05-03T02:21:55;97961.22;;;6.33;74.36
51261;BME280;61705;46.228;24.812;2023-05-03T02:24:22;97960.03;;;6.09;74.80
51261;BME280;61705;46.228;24.812;2023-05-03T02:26:48;97973.25;;;6.05;75.41
51261;BME280;61705;46.228;24.812;2023-05-03T02:29:16;97979.06;;;6.17;74.62
51261;BME280;61705;46.228;24.812;2023-05-03T02:31:42;97987.56;;;6.29;74.03
51261;BME280;61705;46.228;24.812;2023-05-03T02:34:09;97981.50;;;6.27;74.37
51261;BME280;61705;46.228;24.812;2023-05-03T02:36:36;97978.88;;;6.27;73.75
51261;BME280;61705;46.228;24.812;2023-05-03T02:39:02;97982.31;;;6.29;74.39
51261;BME280;61705;46.228;24.812;2023-05-03T02:41:30;97976.25;;;6.27;74.92
51261;BME280;61705;46.228;24.812;2023-05-03T02:43:57;97980.63;;;6.26;74.69
51261;BME280;61705;46.228;24.812;2023-05-03T02:46:23;97975.94;;;6.39;74.26
51261;BME280;61705;46.228;24.812;2023-05-03T02:48:50;97981.50;;;6.25;74.64
51261;BME280;61705;46.228;24.812;2023-05-03T02:51:17;97983.41;;;6.20;74.77
51261;BME280;61705;46.228;24.812;2023-05-03T02:53:43;97986.28;;;6.08;75.53
51261;BME280;61705;46.228;24.812;2023-05-03T02:56:10;97983.41;;;6.20;75.03
51261;BME280;61705;46.228;24.812;2023-05-03T02:58:37;97984.78;;;6.35;74.46
51261;BME280;61705;46.228;24.812;2023-05-03T03:01:03;97991.69;;;6.39;74.65
51261;BME280;61705;46.228;24.812;2023-05-03T03:03:30;97987.66;;;6.26;76.29
51261;BME280;61705;46.228;24.812;2023-05-03T03:05:57;97990.53;;;6.13;77.13
51261;BME280;61705;46.228;24.812;2023-05-03T03:08:24;97991.09;;;6.28;76.27
51261;BME280;61705;46.228;24.812;2023-05-03T03:10:50;97989.75;;;6.10;77.68
51261;BME280;61705;46.228;24.812;2023-05-03T03:13:17;97993.72;;;6.28;76.04
51261;BME280;61705;46.228;24.812;2023-05-03T03:15:43;97998.88;;;6.31;76.87
51261;BME280;61705;46.228;24.812;2023-05-03T03:18:10;98003.78;;;6.46;75.72
51261;BME280;61705;46.228;24.812;2023-05-03T03:20:36;98000.78;;;6.61;74.86
51261;BME280;61705;46.228;24.812;2023-05-03T03:23:03;97998.81;;;6.71;74.73
51261;BME280;61705;46.228;24.812;2023-05-03T03:25:29;98001.44;;;6.70;74.79
51261;BME280;61705;46.228;24.812;2023-05-03T03:27:57;98002.19;;;6.39;75.53
51261;BME280;61705;46.228;24.812;2023-05-03T03:30:23;98002.44;;;6.30;75.45
51261;BME280;61705;46.228;24.812;2023-05-03T03:32:51;98003.34;;;6.27;75.57
51261;BME280;61705;46.228;24.812;2023-05-03T03:35:18;98004.31;;;6.23;75.63
51261;BME280;61705;46.228;24.812;2023-05-03T03:37:45;98007.88;;;6.21;75.69
51261;BME280;61705;46.228;24.812;2023-05-03T03:40:11;98005.31;;;6.19;76.21
51261;BME280;61705;46.228;24.812;2023-05-03T03:42:39;98014.88;;;6.20;76.18
51261;BME280;61705;46.228;24.812;2023-05-03T03:45:06;98018.31;;;6.24;76.10
51261;BME280;61705;46.228;24.812;2023-05-03T03:47:33;98012.91;;;6.30;75.61
51261;BME280;61705;46.228;24.812;2023-05-03T03:50:00;98016.47;;;6.27;76.18
51261;BME280;61705;46.228;24.812;2023-05-03T03:52:30;98015.28;;;6.40;75.65
51261;BME280;61705;46.228;24.812;2023-05-03T03:54:56;98022.06;;;6.49;75.38
51261;BME280;61705;46.228;24.812;2023-05-03T03:57:23;98020.41;;;6.47;75.49
51261;BME280;61705;46.228;24.812;2023-05-03T03:59:51;98022.69;;;6.60;74.98
51261;BME280;61705;46.228;24.812;2023-05-03T04:02:18;98020.44;;;6.81;74.30
51261;BME280;61705;46.228;24.812;2023-05-03T04:04:47;98025.63;;;6.84;74.25
51261;BME280;61705;46.228;24.812;2023-05-03T04:07:14;98026.28;;;6.92;74.23
51261;BME280;61705;46.228;24.812;2023-05-03T04:09:40;98018.28;;;6.97;74.19
51261;BME280;61705;46.228;24.812;2023-05-03T04:12:07;98026.16;;;6.97;74.48
51261;BME280;61705;46.228;24.812;2023-05-03T04:14:34;98025.88;;;7.09;74.20
51261;BME280;61705;46.228;24.812;2023-05-03T04:17:00;98030.00;;;7.18;73.89
51261;BME280;61705;46.228;24.812;2023-05-03T04:19:27;98031.81;;;7.16;74.06
51261;BME280;61705;46.228;24.812;2023-05-03T04:21:54;98025.44;;;7.24;74.15
51261;BME280;61705;46.228;24.812;2023-05-03T04:24:20;98025.03;;;7.40;73.67
51261;BME280;61705;46.228;24.812;2023-05-03T04:26:50;98028.63;;;7.68;72.73
51261;BME280;61705;46.228;24.812;2023-05-03T04:29:19;98038.53;;;7.58;73.47
51261;BME280;61705;46.228;24.812;2023-05-03T04:31:46;98036.25;;;7.77;72.80
51261;BME280;61705;46.228;24.812;2023-05-03T04:34:13;98040.09;;;7.97;72.27
51261;BME280;61705;46.228;24.812;2023-05-03T04:36:47;98039.91;;;8.03;72.17
51261;BME280;61705;46.228;24.812;2023-05-03T04:39:14;98049.47;;;8.05;72.13
51261;BME280;61705;46.228;24.812;2023-05-03T04:41:40;98049.56;;;8.32;71.79
51261;BME280;61705;46.228;24.812;2023-05-03T04:44:07;98050.88;;;8.48;71.22
51261;BME280;61705;46.228;24.812;2023-05-03T04:46:34;98051.47;;;8.57;70.95
51261;BME280;61705;46.228;24.812;2023-05-03T04:49:00;98048.00;;;8.54;71.12
51261;BME280;61705;46.228;24.812;2023-05-03T04:51:27;98044.25;;;8.63;70.74
51261;BME280;61705;46.228;24.812;2023-05-03T04:53:59;98044.81;;;8.73;70.60
51261;BME280;61705;46.228;24.812;2023-05-03T04:56:26;98048.16;;;8.78;70.22
51261;BME280;61705;46.228;24.812;2023-05-03T04:58:54;98040.59;;;8.67;71.04
51261;BME280;61705;46.228;24.812;2023-05-03T05:01:21;98035.38;;;8.66;71.35
51261;BME280;61705;46.228;24.812;2023-05-03T05:03:51;98032.25;;;8.81;71.16
51261;BME280;61705;46.228;24.812;2023-05-03T05:06:19;98035.50;;;8.89;70.84
51261;BME280;61705;46.228;24.812;2023-05-03T05:08:45;98033.75;;;9.15;70.37
51261;BME280;61705;46.228;24.812;2023-05-03T05:11:12;98036.88;;;9.26;69.50
51261;BME280;61705;46.228;24.812;2023-05-03T05:13:39;98036.56;;;9.35;69.02
51261;BME280;61705;46.228;24.812;2023-05-03T05:16:06;98024.25;;;9.36;68.63
51261;BME280;61705;46.228;24.812;2023-05-03T05:18:33;98027.50;;;9.44;68.49
51261;BME280;61705;46.228;24.812;2023-05-03T05:21:00;98027.50;;;9.67;67.89
51261;BME280;61705;46.228;24.812;2023-05-03T05:23:26;98030.00;;;9.72;67.60
51261;BME280;61705;46.228;24.812;2023-05-03T05:25:53;98028.41;;;9.91;67.17
51261;BME280;61705;46.228;24.812;2023-05-03T05:28:20;98027.75;;;10.08;66.59
51261;BME280;61705;46.228;24.812;2023-05-03T05:30:46;98024.84;;;10.16;66.48
51261;BME280;61705;46.228;24.812;2023-05-03T05:33:13;98029.53;;;10.08;66.81
51261;BME280;61705;46.228;24.812;2023-05-03T05:35:43;98024.72;;;10.19;66.75
51261;BME280;61705;46.228;24.812;2023-05-03T05:38:10;98025.97;;;10.32;66.68
51261;BME280;61705;46.228;24.812;2023-05-03T05:40:37;98022.94;;;10.43;66.36
51261;BME280;61705;46.228;24.812;2023-05-03T05:43:04;98028.41;;;10.60;66.17
51261;BME280;61705;46.228;24.812;2023-05-03T05:45:31;98027.16;;;10.69;65.98
51261;BME280;61705;46.228;24.812;2023-05-03T05:47:58;98019.16;;;10.93;65.76
51261;BME280;61705;46.228;24.812;2023-05-03T05:50:24;98029.88;;;10.89;65.72
51261;BME280;61705;46.228;24.812;2023-05-03T05:52:52;98019.38;;;10.88;65.87
51261;BME280;61705;46.228;24.812;2023-05-03T05:55:19;98018.66;;;11.05;65.54
51261;BME280;61705;46.228;24.812;2023-05-03T05:57:46;98013.66;;;11.19;65.15
51261;BME280;61705;46.228;24.812;2023-05-03T06:00:13;98010.53;;;11.30;64.93
51261;BME280;61705;46.228;24.812;2023-05-03T06:02:40;98004.56;;;11.45;64.94
51261;BME280;61705;46.228;24.812;2023-05-03T06:05:07;97997.63;;;11.63;63.96
51261;BME280;61705;46.228;24.812;2023-05-03T06:07:34;97994.06;;;11.44;64.04
51261;BME280;61705;46.228;24.812;2023-05-03T06:10:03;97993.84;;;11.48;63.85
51261;BME280;61705;46.228;24.812;2023-05-03T06:12:30;97988.53;;;11.69;63.71
51261;BME280;61705;46.228;24.812;2023-05-03T06:14:57;97998.97;;;11.92;62.85
51261;BME280;61705;46.228;24.812;2023-05-03T06:17:29;97993.19;;;12.03;62.58
51261;BME280;61705;46.228;24.812;2023-05-03T06:19:56;97986.34;;;12.18;61.89
51261;BME280;61705;46.228;24.812;2023-05-03T06:22:23;97984.75;;;12.32;61.72
51261;BME280;61705;46.228;24.812;2023-05-03T06:24:50;97983.28;;;12.44;61.47
51261;BME280;61705;46.228;24.812;2023-05-03T06:27:16;97978.78;;;12.46;61.48
51261;BME280;61705;46.228;24.812;2023-05-03T06:29:43;97977.72;;;12.68;60.87
51261;BME280;61705;46.228;24.812;2023-05-03T06:32:10;97982.81;;;12.72;60.98
51261;BME280;61705;46.228;24.812;2023-05-03T06:34:37;97975.41;;;12.79;60.54
51261;BME280;61705;46.228;24.812;2023-05-03T06:37:03;97977.03;;;12.81;60.34
51261;BME280;61705;46.228;24.812;2023-05-03T06:39:30;97978.63;;;13.03;59.82
51261;BME280;61705;46.228;24.812;2023-05-03T06:41:56;97979.41;;;13.05;59.60
51261;BME280;61705;46.228;24.812;2023-05-03T06:44:23;97972.09;;;13.27;59.16
51261;BME280;61705;46.228;24.812;2023-05-03T06:46:50;97976.66;;;13.59;58.54
51261;BME280;61705;46.228;24.812;2023-05-03T06:49:16;97974.59;;;13.48;58.45
51261;BME280;61705;46.228;24.812;2023-05-03T06:51:43;97981.72;;;13.63;58.42
51261;BME280;61705;46.228;24.812;2023-05-03T06:54:10;97978.47;;;13.91;57.82
51261;BME280;61705;46.228;24.812;2023-05-03T06:56:36;97970.88;;;14.17;57.34
51261;BME280;61705;46.228;24.812;2023-05-03T06:59:03;97967.53;;;14.29;56.87
51261;BME280;61705;46.228;24.812;2023-05-03T07:01:30;97959.38;;;14.32;56.30
51261;BME280;61705;46.228;24.812;2023-05-03T07:03:57;97968.06;;;14.36;56.40
51261;BME280;61705;46.228;24.812;2023-05-03T07:06:24;97974.81;;;14.26;56.75
51261;BME280;61705;46.228;24.812;2023-05-03T07:08:51;97972.75;;;14.62;56.10
51261;BME280;61705;46.228;24.812;2023-05-03T07:11:21;97973.78;;;14.76;54.31
51261;BME280;61705;46.228;24.812;2023-05-03T07:13:54;97977.84;;;14.67;54.45
51261;BME280;61705;46.228;24.812;2023-05-03T07:16:20;97964.94;;;14.91;54.16
51261;BME280;61705;46.228;24.812;2023-05-03T07:18:47;97965.53;;;15.10;53.55
51261;BME280;61705;46.228;24.812;2023-05-03T07:21:14;97969.00;;;15.27;53.38
51261;BME280;61705;46.228;24.812;2023-05-03T07:23:40;97967.31;;;15.40;53.30
51261;BME280;61705;46.228;24.812;2023-05-03T07:26:07;97965.03;;;15.34;53.40
51261;BME280;61705;46.228;24.812;2023-05-03T07:28:34;97967.44;;;15.53;53.06
51261;BME280;61705;46.228;24.812;2023-05-03T07:31:01;97968.97;;;15.57;52.62
51261;BME280;61705;46.228;24.812;2023-05-03T07:33:29;97964.19;;;15.48;53.02
51261;BME280;61705;46.228;24.812;2023-05-03T07:35:57;97962.00;;;15.40;52.89
51261;BME280;61705;46.228;24.812;2023-05-03T07:38:23;97957.81;;;15.50;52.50
51261;BME280;61705;46.228;24.812;2023-05-03T07:40:50;97954.31;;;15.64;52.08
51261;BME280;61705;46.228;24.812;2023-05-03T07:43:18;97952.31;;;15.53;52.25
51261;BME280;61705;46.228;24.812;2023-05-03T07:45:46;97948.03;;;15.65;51.55
51261;BME280;61705;46.228;24.812;2023-05-03T07:48:13;97949.25;;;16.17;50.55
51261;BME280;61705;46.228;24.812;2023-05-03T07:50:43;97942.03;;;16.19;50.48
51261;BME280;61705;46.228;24.812;2023-05-03T07:53:10;97942.00;;;16.33;49.92
51261;BME280;61705;46.228;24.812;2023-05-03T07:55:37;97953.19;;;16.52;49.74
51261;BME280;61705;46.228;24.812;2023-05-03T07:58:04;97943.59;;;16.77;49.36
51261;BME280;61705;46.228;24.812;2023-05-03T08:00:30;97942.47;;;16.67;49.28
51261;BME280;61705;46.228;24.812;2023-05-03T08:02:57;97942.28;;;16.70;48.91
51261;BME280;61705;46.228;24.812;2023-05-03T08:05:24;97939.78;;;16.81;48.93
51261;BME280;61705;46.228;24.812;2023-05-03T08:07:51;97942.13;;;16.58;47.70
51261;BME280;61705;46.228;24.812;2023-05-03T08:10:18;97936.69;;;16.87;47.27
51261;BME280;61705;46.228;24.812;2023-05-03T08:12:44;97938.31;;;17.02;46.98
51261;BME280;61705;46.228;24.812;2023-05-03T08:15:11;97929.75;;;17.37;46.64
51261;BME280;61705;46.228;24.812;2023-05-03T08:17:42;97933.81;;;17.68;46.14
51261;BME280;61705;46.228;24.812;2023-05-03T08:20:09;97929.66;;;17.77;45.10
51261;BME280;61705;46.228;24.812;2023-05-03T08:22:39;97927.81;;;17.65;45.71
51261;BME280;61705;46.228;24.812;2023-05-03T08:25:07;97930.41;;;17.92;45.09
51261;BME280;61705;46.228;24.812;2023-05-03T08:27:33;97926.28;;;18.12;44.74
51261;BME280;61705;46.228;24.812;2023-05-03T08:30:00;97925.06;;;17.92;44.12
51261;BME280;61705;46.228;24.812;2023-05-03T08:32:28;97926.88;;;18.28;43.40
51261;BME280;61705;46.228;24.812;2023-05-03T08:34:55;97927.59;;;18.43;43.57
51261;BME280;61705;46.228;24.812;2023-05-03T08:37:22;97909.72;;;18.43;43.27
51261;BME280;61705;46.228;24.812;2023-05-03T08:39:49;97918.34;;;18.23;42.85
51261;BME280;61705;46.228;24.812;2023-05-03T08:42:16;97913.25;;;18.44;42.68
51261;BME280;61705;46.228;24.812;2023-05-03T08:44:47;97905.72;;;18.49;42.60
51261;BME280;61705;46.228;24.812;2023-05-03T08:47:15;97906.66;;;18.61;43.35
51261;BME280;61705;46.228;24.812;2023-05-03T08:49:46;97905.00;;;18.71;41.44
51261;BME280;61705;46.228;24.812;2023-05-03T08:52:14;97906.50;;;18.75;41.92
51261;BME280;61705;46.228;24.812;2023-05-03T08:54:43;97893.59;;;19.04;41.02
51261;BME280;61705;46.228;24.812;2023-05-03T08:57:15;97897.50;;;19.11;40.81
51261;BME280;61705;46.228;24.812;2023-05-03T08:59:49;97896.44;;;19.25;40.70
51261;BME280;61705;46.228;24.812;2023-05-03T09:02:16;97891.16;;;19.12;41.46
51261;BME280;61705;46.228;24.812;2023-05-03T09:04:44;97899.88;;;18.92;40.06
51261;BME280;61705;46.228;24.812;2023-05-03T09:07:11;97892.72;;;19.04;39.63
51261;BME280;61705;46.228;24.812;2023-05-03T09:09:38;97885.88;;;19.46;38.69
51261;BME280;61705;46.228;24.812;2023-05-03T09:12:05;97890.25;;;19.58;38.75
51261;BME280;61705;46.228;24.812;2023-05-03T09:14:41;97896.59;;;19.57;38.46
51261;BME280;61705;46.228;24.812;2023-05-03T09:17:16;97880.66;;;19.56;37.76
51261;BME280;61705;46.228;24.812;2023-05-03T09:19:54;97878.00;;;19.67;37.79
51261;BME280;61705;46.228;24.812;2023-05-03T09:22:22;97877.81;;;20.13;37.51
51261;BME280;61705;46.228;24.812;2023-05-03T09:24:54;97876.78;;;20.48;37.15
51261;BME280;61705;46.228;24.812;2023-05-03T09:27:22;97870.84;;;20.77;36.78
51261;BME280;61705;46.228;24.812;2023-05-03T09:29:50;97865.53;;;20.66;36.67
51261;BME280;61705;46.228;24.812;2023-05-03T09:32:18;97877.03;;;20.45;37.43
51261;BME280;61705;46.228;24.812;2023-05-03T09:34:45;97872.41;;;20.36;37.22
51261;BME280;61705;46.228;24.812;2023-05-03T09:37:12;97869.28;;;20.31;37.62
51261;BME280;61705;46.228;24.812;2023-05-03T09:39:42;97861.47;;;20.28;36.38
51261;BME280;61705;46.228;24.812;2023-05-03T09:42:15;97854.31;;;20.61;35.83
51261;BME280;61705;46.228;24.812;2023-05-03T09:44:49;97855.03;;;20.63;35.64
51261;BME280;61705;46.228;24.812;2023-05-03T09:47:19;97851.63;;;20.61;35.93
51261;BME280;61705;46.228;24.812;2023-05-03T09:49:51;97847.19;;;20.71;35.32
51261;BME280;61705;46.228;24.812;2023-05-03T09:52:18;97851.31;;;20.75;35.92
51261;BME280;61705;46.228;24.812;2023-05-03T09:54:47;97854.31;;;21.35;34.84
51261;BME280;61705;46.228;24.812;2023-05-03T09:57:14;97842.94;;;21.52;34.58
51261;BME280;61705;46.228;24.812;2023-05-03T09:59:43;97843.69;;;21.64;33.59
51261;BME280;61705;46.228;24.812;2023-05-03T10:02:10;97846.94;;;21.16;33.55
51261;BME280;61705;46.228;24.812;2023-05-03T10:04:48;97847.31;;;21.32;33.43
51261;BME280;61705;46.228;24.812;2023-05-03T10:07:17;97842.75;;;21.44;34.23
51261;BME280;61705;46.228;24.812;2023-05-03T10:09:47;97841.19;;;21.41;33.82
51261;BME280;61705;46.228;24.812;2023-05-03T10:12:14;97839.25;;;21.53;33.42
51261;BME280;61705;46.228;24.812;2023-05-03T10:14:45;97836.28;;;21.56;33.27
51261;BME280;61705;46.228;24.812;2023-05-03T10:17:27;97828.91;;;21.48;32.23
51261;BME280;61705;46.228;24.812;2023-05-03T10:20:32;97826.91;;;21.81;32.83
51261;BME280;61705;46.228;24.812;2023-05-03T10:25:31;97819.00;;;22.39;31.46
51261;BME280;61705;46.228;24.812;2023-05-03T10:28:02;97815.34;;;22.50;30.57
51261;BME280;61705;46.228;24.812;2023-05-03T10:30:37;97810.06;;;22.58;30.36
51261;BME280;61705;46.228;24.812;2023-05-03T10:35:42;97819.00;;;22.68;28.42
51261;BME280;61705;46.228;24.812;2023-05-03T10:38:16;97815.88;;;23.02;29.32
51261;BME280;61705;46.228;24.812;2023-05-03T10:40:43;97805.53;;;22.59;30.54
51261;BME280;61705;46.228;24.812;2023-05-03T10:46:05;97806.97;;;22.43;30.21
51261;BME280;61705;46.228;24.812;2023-05-03T10:48:36;97809.78;;;22.61;29.80
51261;BME280;61705;46.228;24.812;2023-05-03T10:53:52;97796.47;;;22.50;29.22
51261;BME280;61705;46.228;24.812;2023-05-03T10:56:19;97806.50;;;23.06;28.98
51261;BME280;61705;46.228;24.812;2023-05-03T10:58:48;97809.00;;;23.37;29.04
51261;BME280;61705;46.228;24.812;2023-05-03T11:01:17;97807.56;;;23.42;28.62
51261;BME280;61705;46.228;24.812;2023-05-03T11:03:52;97809.28;;;23.34;28.03
51261;BME280;61705;46.228;24.812;2023-05-03T11:06:33;97802.91;;;23.72;27.66
51261;BME280;61705;46.228;24.812;2023-05-03T11:09:03;97800.97;;;23.92;27.41
51261;BME280;61705;46.228;24.812;2023-05-03T11:11:33;97799.34;;;23.99;27.50
51261;BME280;61705;46.228;24.812;2023-05-03T11:14:01;97802.81;;;23.54;27.01
51261;BME280;61705;46.228;24.812;2023-05-03T11:16:29;97794.13;;;23.60;26.69
51261;BME280;61705;46.228;24.812;2023-05-03T11:18:58;97794.91;;;24.08;26.50
51261;BME280;61705;46.228;24.812;2023-05-03T11:21:25;97792.56;;;23.95;26.27
51261;BME280;61705;46.228;24.812;2023-05-03T11:23:53;97785.72;;;24.01;26.40
51261;BME280;61705;46.228;24.812;2023-05-03T11:26:23;97784.00;;;24.00;26.52
51261;BME280;61705;46.228;24.812;2023-05-03T11:28:52;97780.59;;;24.25;26.15
51261;BME280;61705;46.228;24.812;2023-05-03T11:31:19;97776.16;;;24.52;25.98
51261;BME280;61705;46.228;24.812;2023-05-03T11:33:48;97772.66;;;24.59;26.40
51261;BME280;61705;46.228;24.812;2023-05-03T11:36:15;97779.88;;;24.23;26.59
51261;BME280;61705;46.228;24.812;2023-05-03T11:38:45;97769.53;;;24.19;26.84
51261;BME280;61705;46.228;24.812;2023-05-03T11:41:14;97767.69;;;24.37;26.82
51261;BME280;61705;46.228;24.812;2023-05-03T11:43:47;97767.34;;;23.86;28.14
51261;BME280;61705;46.228;24.812;2023-05-03T11:46:26;97766.06;;;23.16;28.71
51261;BME280;61705;46.228;24.812;2023-05-03T11:48:54;97760.63;;;23.26;29.11
51261;BME280;61705;46.228;24.812;2023-05-03T11:51:23;97765.59;;;23.21;28.67
51261;BME280;61705;46.228;24.812;2023-05-03T11:53:50;97760.16;;;23.40;28.67
51261;BME280;61705;46.228;24.812;2023-05-03T11:56:17;97750.97;;;23.60;28.38
51261;BME280;61705;46.228;24.812;2023-05-03T11:58:52;97747.69;;;23.67;27.52
51261;BME280;61705;46.228;24.812;2023-05-03T12:01:24;97749.44;;;23.85;27.44
51261;BME280;61705;46.228;24.812;2023-05-03T12:04:11;97749.38;;;23.95;27.51
51261;BME280;61705;46.228;24.812;2023-05-03T12:06:41;97741.44;;;24.11;27.05
51261;BME280;61705;46.228;24.812;2023-05-03T12:09:15;97740.59;;;24.11;26.33
51261;BME280;61705;46.228;24.812;2023-05-03T12:11:44;97738.44;;;24.15;25.48
51261;BME280;61705;46.228;24.812;2023-05-03T12:14:13;97727.50;;;24.52;25.12
51261;BME280;61705;46.228;24.812;2023-05-03T12:16:49;97726.06;;;24.83;24.97
51261;BME280;61705;46.228;24.812;2023-05-03T12:19:29;97719.53;;;24.94;24.90
51261;BME280;61705;46.228;24.812;2023-05-03T12:22:03;97711.91;;;24.90;23.15
51261;BME280;61705;46.228;24.812;2023-05-03T12:24:51;97699.97;;;24.74;22.96
51261;BME280;61705;46.228;24.812;2023-05-03T12:27:19;97707.28;;;24.56;23.70
51261;BME280;61705;46.228;24.812;2023-05-03T12:29:49;97695.31;;;24.58;23.17
51261;BME280;61705;46.228;24.812;2023-05-03T12:32:17;97703.09;;;24.62;22.82
51261;BME280;61705;46.228;24.812;2023-05-03T12:34:44;97696.63;;;25.06;22.52
51261;BME280;61705;46.228;24.812;2023-05-03T12:37:12;97698.59;;;25.22;22.69
51261;BME280;61705;46.228;24.812;2023-05-03T12:39:42;97700.59;;;25.55;22.31
51261;BME280;61705;46.228;24.812;2023-05-03T12:42:16;97686.59;;;25.67;22.33
51261;BME280;61705;46.228;24.812;2023-05-03T12:44:47;97683.81;;;25.85;22.08
51261;BME280;61705;46.228;24.812;2023-05-03T12:47:14;97681.88;;;25.69;21.75
51261;BME280;61705;46.228;24.812;2023-05-03T12:49:49;97676.41;;;26.20;21.73
51261;BME280;61705;46.228;24.812;2023-05-03T12:52:18;97674.72;;;26.43;22.00
51261;BME280;61705;46.228;24.812;2023-05-03T12:55:04;97668.09;;;26.21;21.25
51261;BME280;61705;46.228;24.812;2023-05-03T12:57:36;97664.72;;;26.11;21.44
51261;BME280;61705;46.228;24.812;2023-05-03T13:00:07;97670.97;;;26.28;21.65
51261;BME280;61705;46.228;24.812;2023-05-03T13:02:40;97665.22;;;26.72;20.58
51261;BME280;61705;46.228;24.812;2023-05-03T13:05:27;97664.25;;;26.57;21.14
51261;BME280;61705;46.228;24.812;2023-05-03T13:08:01;97652.19;;;26.27;21.63
51261;BME280;61705;46.228;24.812;2023-05-03T13:10:38;97657.97;;;26.64;21.21
51261;BME280;61705;46.228;24.812;2023-05-03T13:13:06;97666.00;;;25.32;22.16
51261;BME280;61705;46.228;24.812;2023-05-03T13:15:35;97667.84;;;24.71;23.04